createdAt,value
2018-05-16T00:00:29.870Z,5.40
2018-05-16T00:02:58.768Z,6.37
2018-05-16T00:05:27.649Z,6.12
2018-05-16T00:07:55.760Z,6.57
2018-05-16T00:10:23.872Z,6.85
2018-05-16T00:12:51.987Z,6.55
2018-05-16T00:15:20.893Z,7.05
2018-05-16T00:17:49.762Z,7.03
2018-05-16T00:20:17.869Z,7.62
2018-05-16T00:22:45.976Z,7.25
2018-05-16T00:25:14.092Z,7.10
2018-05-16T00:27:42.232Z,7.87
2018-05-16T00:30:10.347Z,6.62
2018-05-16T00:32:38.461Z,6.90
2018-05-16T00:35:06.692Z,7.45
2018-05-16T00:37:34.819Z,7.40
2018-05-16T00:40:02.919Z,6.62
2018-05-16T00:42:31.053Z,6.85
2018-05-16T00:44:59.190Z,6.95
2018-05-16T00:47:27.307Z,6.95
2018-05-16T00:49:56.202Z,7.35
2018-05-16T00:52:25.075Z,7.47
2018-05-16T00:54:53.202Z,6.97
2018-05-16T00:57:21.302Z,6.93
2018-05-16T00:59:49.409Z,7.70
2018-05-16T01:02:17.573Z,8.07
2018-05-16T01:04:45.683Z,7.25
2018-05-16T01:07:14.553Z,7.78
2018-05-16T01:09:42.701Z,8.65
2018-05-16T01:12:10.831Z,8.48
2018-05-16T01:14:39.711Z,8.32
2018-05-16T01:17:07.836Z,7.95
2018-05-16T01:19:35.956Z,8.35
2018-05-16T01:22:04.112Z,8.43
2018-05-16T01:24:32.213Z,8.30
2018-05-16T01:27:00.308Z,8.50
2018-05-16T01:29:29.205Z,8.75
2018-05-16T01:31:58.086Z,9.20
2018-05-16T01:34:26.215Z,8.95
2018-05-16T01:36:54.333Z,8.25
2018-05-16T01:39:22.451Z,8.75
2018-05-16T01:41:50.569Z,8.63
2018-05-16T01:44:18.680Z,9.20
2018-05-16T01:46:47.573Z,9.25
2018-05-16T01:49:20.694Z,9.35
2018-05-16T01:51:48.831Z,9.23
2018-05-16T01:54:16.968Z,9.18
2018-05-16T01:56:45.084Z,9.23
2018-05-16T01:59:13.220Z,9.43
2018-05-16T02:01:41.321Z,9.57
2018-05-16T02:04:09.570Z,9.60
2018-05-16T02:06:37.682Z,10.25
2018-05-16T02:09:06.589Z,9.68
2018-05-16T02:11:34.711Z,9.55
2018-05-16T02:14:02.892Z,9.73
2018-05-16T02:16:31.035Z,10.13
2018-05-16T02:18:59.166Z,10.40
2018-05-16T02:21:27.280Z,10.52
2018-05-16T02:23:55.405Z,10.32
2018-05-16T02:26:23.581Z,10.70
2018-05-16T02:28:51.744Z,10.48
2018-05-16T02:31:20.652Z,11.07
2018-05-16T02:33:48.761Z,11.25
2018-05-16T02:36:16.890Z,10.85
2018-05-16T02:38:45.765Z,11.10
2018-05-16T02:41:13.869Z,11.73
2018-05-16T02:43:42.015Z,10.85
2018-05-16T02:46:10.134Z,12.07
2018-05-16T02:48:38.248Z,12.57
2018-05-16T02:51:06.378Z,12.60
2018-05-16T02:53:34.511Z,11.95
2018-05-16T02:56:02.650Z,12.37
2018-05-16T02:58:30.764Z,13.38
2018-05-16T03:00:58.886Z,13.02
2018-05-16T03:03:27.019Z,13.05
2018-05-16T03:05:55.134Z,13.80
2018-05-16T03:08:24.046Z,13.48
2018-05-16T03:10:52.184Z,13.13
2018-05-16T03:13:20.296Z,13.15
2018-05-16T03:15:48.433Z,15.15
2018-05-16T03:18:16.628Z,12.35
2018-05-16T03:20:44.839Z,13.38
2018-05-16T03:23:12.981Z,13.10
2018-05-16T03:25:41.092Z,14.23
2018-05-16T03:28:09.200Z,14.77
2018-05-16T03:30:37.321Z,14.43
2018-05-16T03:33:06.196Z,14.80
2018-05-16T03:35:34.336Z,15.07
2018-05-16T03:38:02.453Z,14.05
2018-05-16T03:40:30.570Z,14.02
2018-05-16T03:42:58.681Z,14.60
2018-05-16T03:45:26.805Z,15.32
2018-05-16T03:47:55.717Z,14.93
2018-05-16T03:50:23.826Z,15.88
2018-05-16T03:52:51.932Z,16.83
2018-05-16T03:55:20.050Z,15.48
2018-05-16T04:01:12.609Z,15.43
2018-05-16T04:03:58.596Z,13.90
2018-05-16T04:06:26.715Z,13.27
2018-05-16T04:08:54.830Z,14.15
2018-05-16T04:11:23.718Z,13.85
2018-05-16T04:13:52.594Z,14.25
2018-05-16T04:16:20.771Z,14.38
2018-05-16T04:18:48.880Z,15.27
2018-05-16T04:21:16.993Z,16.17
2018-05-16T04:23:45.125Z,14.27
2018-05-16T04:26:14.033Z,16.02
2018-05-16T04:28:42.156Z,16.87
2018-05-16T04:31:10.293Z,16.10
2018-05-16T04:33:38.408Z,14.87
2018-05-16T04:36:06.534Z,15.55
2018-05-16T04:38:34.645Z,15.63
2018-05-16T04:41:02.778Z,16.02
2018-05-16T04:43:31.683Z,15.63
2018-05-16T04:45:59.853Z,16.10
2018-05-16T04:48:27.920Z,15.88
2018-05-16T04:50:56.816Z,14.35
2018-05-16T04:53:25.748Z,14.30
2018-05-16T04:55:53.877Z,14.93
2018-05-16T04:58:22.782Z,15.52
2018-05-16T05:00:51.684Z,14.25
2018-05-16T05:03:19.838Z,14.10
2018-05-16T05:05:47.975Z,14.85
2018-05-16T05:08:16.096Z,14.00
2018-05-16T05:10:44.231Z,13.98
2018-05-16T05:13:12.350Z,13.95
2018-05-16T05:15:40.464Z,14.77
2018-05-16T05:18:08.588Z,16.37
2018-05-16T05:20:36.735Z,14.40
2018-05-16T05:23:04.879Z,14.23
2018-05-16T05:25:33.780Z,14.68
2018-05-16T05:28:02.672Z,15.18
2018-05-16T05:30:31.575Z,13.95
2018-05-16T05:32:59.701Z,13.65
2018-05-16T05:35:27.846Z,14.60
2018-05-16T05:37:56.002Z,13.77
2018-05-16T05:40:24.883Z,14.60
2018-05-16T05:42:53.823Z,14.48
2018-05-16T05:45:21.937Z,15.60
2018-05-16T05:47:50.042Z,16.00
2018-05-16T05:50:18.961Z,15.75
2018-05-16T05:52:47.089Z,15.98
2018-05-16T05:55:15.224Z,16.80
2018-05-16T05:57:43.375Z,15.57
2018-05-16T06:00:11.575Z,17.37
2018-05-16T06:02:39.669Z,16.55
2018-05-16T06:05:07.798Z,16.80
2018-05-16T06:07:36.684Z,17.85
2018-05-16T06:10:05.584Z,17.75
2018-05-16T06:12:34.470Z,18.98
2018-05-16T06:15:03.393Z,17.37
2018-05-16T06:17:31.523Z,17.77
2018-05-16T06:19:59.659Z,16.67
2018-05-16T06:22:27.851Z,18.12
2018-05-16T06:24:55.996Z,18.15
2018-05-16T06:27:24.288Z,16.17
2018-05-16T06:29:52.274Z,16.48
2018-05-16T06:32:20.418Z,16.37
2018-05-16T06:34:49.299Z,16.33
2018-05-16T06:37:18.201Z,17.40
2018-05-16T06:39:47.090Z,17.30
2018-05-16T06:42:15.992Z,15.55
2018-05-16T06:44:44.896Z,15.23
2018-05-16T06:47:13.023Z,15.95
2018-05-16T06:49:41.148Z,16.05
2018-05-16T06:52:10.047Z,16.12
2018-05-16T06:54:38.181Z,16.55
2018-05-16T06:57:06.317Z,15.70
2018-05-16T06:59:34.444Z,14.57
2018-05-16T07:02:02.585Z,15.23
2018-05-16T07:04:30.699Z,15.63
2018-05-16T07:06:58.820Z,13.73
2018-05-16T07:09:26.937Z,14.50
2018-05-16T07:11:55.072Z,13.93
2018-05-16T07:14:23.202Z,13.52
2018-05-16T07:16:51.345Z,13.35
2018-05-16T07:19:19.456Z,12.57
2018-05-16T07:21:47.595Z,13.65
2018-05-16T07:24:15.713Z,13.73
2018-05-16T07:26:43.845Z,13.62
2018-05-16T07:29:11.957Z,13.62
2018-05-16T07:31:40.852Z,12.02
2018-05-16T07:34:08.985Z,13.82
2018-05-16T07:36:37.102Z,12.95
2018-05-16T07:39:06.198Z,13.02
2018-05-16T07:41:34.323Z,13.95
2018-05-16T07:44:03.215Z,14.20
2018-05-16T07:46:32.112Z,13.73
2018-05-16T07:49:01.010Z,13.20
2018-05-16T07:51:29.878Z,15.15
2018-05-16T07:53:58.023Z,14.68
2018-05-16T07:56:26.166Z,14.68
2018-05-16T07:58:54.308Z,14.87
2018-05-16T08:01:22.439Z,15.32
2018-05-16T08:03:50.574Z,15.45
2018-05-16T08:06:19.480Z,14.82
2018-05-16T08:08:48.357Z,16.87
2018-05-16T08:11:16.495Z,17.52
2018-05-16T08:13:44.635Z,15.38
2018-05-16T08:16:12.779Z,13.40
2018-05-16T08:18:40.904Z,14.52
2018-05-16T08:21:09.036Z,15.02
2018-05-16T08:23:37.155Z,14.57
2018-05-16T08:26:05.300Z,14.57
2018-05-16T08:28:33.410Z,14.18
2018-05-16T08:31:01.585Z,15.13
2018-05-16T08:33:29.698Z,15.82
2018-05-16T08:35:57.826Z,13.85
2018-05-16T08:38:26.715Z,15.35
2018-05-16T08:40:55.613Z,15.35
2018-05-16T08:43:24.483Z,14.55
2018-05-16T08:45:53.340Z,14.63
2018-05-16T08:48:21.463Z,14.63
2018-05-16T08:50:50.361Z,14.60
2018-05-16T08:53:19.257Z,14.50
2018-05-16T08:55:48.161Z,14.32
2018-05-16T08:58:17.072Z,15.40
2018-05-16T09:00:45.190Z,14.90
2018-05-16T09:03:13.340Z,14.80
2018-05-16T09:05:41.463Z,14.07
2018-05-16T09:08:09.590Z,15.88
2018-05-16T09:10:37.721Z,14.93
2018-05-16T09:13:05.867Z,13.88
2018-05-16T09:15:34.109Z,13.98
2018-05-16T09:18:02.260Z,14.25
2018-05-16T09:20:30.390Z,14.60
2018-05-16T09:22:58.510Z,16.02
2018-05-16T09:25:26.632Z,14.98
2018-05-16T09:27:54.833Z,13.15
2018-05-16T09:30:22.945Z,14.75
2018-05-16T09:32:51.073Z,13.52
2018-05-16T09:35:19.194Z,12.63
2018-05-16T09:37:47.325Z,12.70
2018-05-16T09:40:15.515Z,13.73
2018-05-16T09:42:44.366Z,13.40
2018-05-16T09:45:12.498Z,12.40
2018-05-16T09:47:40.626Z,12.95
2018-05-16T09:50:08.753Z,15.18
2018-05-16T09:52:36.892Z,13.35
2018-05-16T09:55:05.012Z,13.60
2018-05-16T09:57:33.145Z,13.90
2018-05-16T10:00:01.289Z,15.13
2018-05-16T10:02:30.193Z,14.27
2018-05-16T10:04:59.086Z,14.15
2018-05-16T10:07:27.980Z,14.75
2018-05-16T10:09:56.913Z,14.48
2018-05-16T10:12:25.049Z,14.23
2018-05-16T10:14:53.934Z,14.82
2018-05-16T10:17:22.125Z,15.93
2018-05-16T10:19:51.014Z,15.07
2018-05-16T10:22:19.129Z,14.85
2018-05-16T10:24:47.247Z,15.32
2018-05-16T10:27:15.710Z,13.35
2018-05-16T10:29:43.845Z,15.80
2018-05-16T10:32:12.728Z,14.48
2018-05-16T10:34:41.622Z,17.02
2018-05-16T10:37:10.566Z,16.87
2018-05-16T10:39:38.710Z,15.13
2018-05-16T10:42:07.591Z,16.42
2018-05-16T10:44:36.492Z,14.80
2018-05-16T10:47:05.513Z,15.80
2018-05-16T10:49:33.635Z,15.68
2018-05-16T10:52:01.803Z,15.98
2018-05-16T10:54:29.932Z,15.45
2018-05-16T10:56:58.823Z,16.00
2018-05-16T10:59:27.714Z,16.98
2018-05-16T11:01:56.609Z,16.65
2018-05-16T11:04:25.494Z,16.20
2018-05-16T11:06:53.654Z,15.27
2018-05-16T11:09:21.782Z,15.65
2018-05-16T11:11:49.913Z,15.85
2018-05-16T11:14:18.058Z,16.12
2018-05-16T11:16:46.182Z,15.15
2018-05-16T11:19:15.064Z,15.57
2018-05-16T11:21:43.210Z,15.93
2018-05-16T11:24:11.337Z,16.40
2018-05-16T11:26:40.283Z,14.85
2018-05-16T11:29:08.411Z,15.13
2018-05-16T11:31:37.405Z,14.38
2018-05-16T11:34:05.448Z,16.10
2018-05-16T11:36:33.662Z,15.38
2018-05-16T11:39:01.750Z,15.23
2018-05-16T11:41:29.897Z,14.73
2018-05-16T11:43:58.796Z,14.95
2018-05-16T11:46:26.936Z,14.63
2018-05-16T11:48:55.115Z,14.73
2018-05-16T11:51:23.195Z,14.27
2018-05-16T11:53:51.310Z,14.13
2018-05-16T11:56:20.198Z,12.40
2018-05-16T11:58:49.108Z,12.68
2018-05-16T12:01:17.985Z,12.80
2018-05-16T12:03:46.913Z,12.68
2018-05-16T12:06:15.065Z,13.15
2018-05-16T12:08:43.965Z,12.50
2018-05-16T12:11:12.841Z,11.88
2018-05-16T12:13:40.992Z,12.35
2018-05-16T12:16:09.433Z,13.50
2018-05-16T12:18:37.570Z,13.32
2018-05-16T12:21:05.725Z,13.32
2018-05-16T12:23:33.853Z,13.27
2018-05-16T12:26:02.758Z,12.85
2018-05-16T12:28:30.883Z,13.80
2018-05-16T12:30:59.024Z,14.43
2018-05-16T12:33:27.163Z,12.52
2018-05-16T12:35:55.302Z,12.90
2018-05-16T12:38:23.466Z,14.23
2018-05-16T12:40:51.574Z,13.07
2018-05-16T12:43:19.706Z,13.18
2018-05-16T12:45:47.838Z,13.35
2018-05-16T12:48:15.971Z,12.32
2018-05-16T12:50:44.105Z,12.40
2018-05-16T12:53:13.038Z,15.25
2018-05-16T12:55:41.286Z,13.80
2018-05-16T12:58:10.236Z,12.80
2018-05-16T13:00:38.349Z,13.65
2018-05-16T13:03:07.275Z,13.02
2018-05-16T13:05:35.394Z,12.75
2018-05-16T13:08:03.537Z,12.60
2018-05-16T13:10:31.660Z,12.88
2018-05-16T13:12:59.844Z,11.77
2018-05-16T13:15:27.933Z,11.30
2018-05-16T13:17:56.083Z,11.68
2018-05-16T13:20:24.224Z,12.05
2018-05-16T13:22:52.362Z,11.77
2018-05-16T13:25:20.486Z,11.80
2018-05-16T13:27:48.628Z,11.93
2018-05-16T13:30:17.513Z,12.65
2018-05-16T13:32:46.320Z,12.57
2018-05-16T13:35:15.245Z,12.15
2018-05-16T13:37:43.359Z,11.57
2018-05-16T13:40:11.477Z,12.25
2018-05-16T13:42:40.359Z,10.95
2018-05-16T13:45:09.264Z,10.90
2018-05-16T13:47:38.174Z,11.40
2018-05-16T13:50:06.300Z,10.40
2018-05-16T13:52:34.431Z,11.60
2018-05-16T13:55:02.561Z,13.20
2018-05-16T13:57:30.690Z,12.13
2018-05-16T13:59:58.825Z,11.48
2018-05-16T14:02:26.966Z,10.80
2018-05-16T14:04:55.100Z,10.98
2018-05-16T14:07:23.995Z,11.32
2018-05-16T14:09:52.876Z,11.07
2018-05-16T14:12:21.771Z,11.40
2018-05-16T14:14:50.652Z,13.52
2018-05-16T14:17:18.769Z,10.35
2018-05-16T14:19:46.912Z,12.50
2018-05-16T14:22:15.065Z,12.30
2018-05-16T14:24:43.175Z,11.27
2018-05-16T14:27:12.057Z,11.07
2018-05-16T14:29:40.185Z,12.07
2018-05-16T14:32:08.300Z,11.10
2018-05-16T14:34:36.445Z,11.18
2018-05-16T14:37:04.556Z,10.90
2018-05-16T14:39:32.700Z,10.50
2018-05-16T14:42:00.862Z,8.93
2018-05-16T14:44:28.978Z,9.63
2018-05-16T14:46:57.083Z,9.82
2018-05-16T14:49:25.998Z,10.35
2018-05-16T14:51:54.126Z,10.07
2018-05-16T14:54:22.250Z,8.63
2018-05-16T14:56:51.142Z,8.10
2018-05-16T14:59:20.036Z,7.12
2018-05-16T15:01:48.949Z,6.43
2018-05-16T15:04:17.071Z,5.65
2018-05-16T15:06:45.195Z,5.43
2018-05-16T15:09:13.318Z,6.18
2018-05-16T15:11:41.497Z,6.22
2018-05-16T15:14:10.378Z,6.20
2018-05-16T15:16:38.527Z,6.40
2018-05-16T15:19:06.652Z,6.50
2018-05-16T15:21:34.814Z,6.15
2018-05-16T15:24:02.943Z,6.00
2018-05-16T15:26:31.136Z,5.93
2018-05-16T15:28:59.253Z,6.40
2018-05-16T15:31:27.468Z,7.37
2018-05-16T15:33:55.536Z,6.32
2018-05-16T15:36:24.480Z,5.82
2018-05-16T15:38:53.176Z,5.68
2018-05-16T15:41:21.309Z,6.82
2018-05-16T15:43:50.192Z,6.55
2018-05-16T15:46:19.113Z,6.82
2018-05-16T15:48:47.233Z,6.20
2018-05-16T15:51:15.375Z,6.05
2018-05-16T15:53:43.495Z,5.47
2018-05-16T15:56:11.638Z,5.80
2018-05-16T15:58:39.763Z,5.55
2018-05-16T16:01:07.874Z,5.43
2018-05-16T16:03:35.990Z,6.28
2018-05-16T16:06:04.122Z,5.62
2018-05-16T16:08:33.029Z,6.68
2018-05-16T16:11:01.161Z,6.50
2018-05-16T16:13:29.395Z,7.62
2018-05-16T16:15:57.505Z,8.38
2018-05-16T16:18:25.698Z,8.00
2018-05-16T16:20:53.781Z,9.00
2018-05-16T16:23:21.968Z,8.20
2018-05-16T16:25:51.008Z,7.95
2018-05-16T16:28:19.184Z,7.35
2018-05-16T16:30:47.312Z,7.90
2018-05-16T16:33:16.238Z,7.28
2018-05-16T16:35:44.351Z,7.37
2018-05-16T16:38:12.520Z,7.18
2018-05-16T16:40:40.669Z,7.25
2018-05-16T16:43:08.803Z,6.97
2018-05-16T16:45:36.963Z,7.10
2018-05-16T16:48:05.124Z,14.75
2018-05-16T16:50:33.278Z,11.12
2018-05-16T16:53:01.390Z,8.75
2018-05-16T16:55:29.523Z,8.85
2018-05-16T16:57:59.257Z,8.35
2018-05-16T17:00:27.687Z,7.15
2018-05-16T17:02:55.857Z,7.80
2018-05-16T17:05:24.246Z,7.93
2018-05-16T17:07:52.479Z,8.30
2018-05-16T17:10:20.647Z,7.35
2018-05-16T17:12:48.779Z,7.68
2018-05-16T17:15:16.919Z,7.62
2018-05-16T17:17:45.032Z,8.57
2018-05-16T17:20:13.991Z,7.15
2018-05-16T17:22:42.862Z,7.80
2018-05-16T17:25:11.296Z,8.18
2018-05-16T17:27:39.450Z,8.88
2018-05-16T17:30:07.594Z,8.50
2018-05-16T17:32:36.518Z,9.13
2018-05-16T17:35:04.663Z,8.82
2018-05-16T17:37:33.548Z,8.65
2018-05-16T17:40:01.669Z,7.95
2018-05-16T17:42:29.808Z,8.40
2018-05-16T17:44:57.933Z,7.68
2018-05-16T17:47:26.086Z,6.57
2018-05-16T17:49:54.228Z,6.90
2018-05-16T17:52:22.384Z,7.68
2018-05-16T17:54:50.507Z,7.53
2018-05-16T17:57:19.404Z,7.30
2018-05-16T17:59:47.537Z,7.60
2018-05-16T18:02:15.657Z,7.43
2018-05-16T18:04:44.537Z,7.78
2018-05-16T18:07:13.451Z,7.50
2018-05-16T18:09:41.583Z,7.40
2018-05-16T18:12:09.729Z,8.23
2018-05-16T18:17:50.611Z,6.80
2018-05-16T18:20:18.782Z,7.32
2018-05-16T18:22:46.952Z,7.95
2018-05-16T18:25:15.101Z,7.22
2018-05-16T18:27:43.981Z,7.50
2018-05-16T18:30:12.106Z,7.47
2018-05-16T18:32:40.230Z,6.95
2018-05-16T18:35:09.257Z,7.25
2018-05-16T18:37:38.137Z,6.80
2018-05-16T18:40:07.023Z,7.35
2018-05-16T18:42:35.266Z,6.75
2018-05-16T18:45:04.098Z,6.57
2018-05-16T18:47:32.977Z,6.87
2018-05-16T18:50:01.097Z,7.00
2018-05-16T18:52:29.970Z,6.18
2018-05-16T18:54:58.121Z,6.12
2018-05-16T18:57:26.234Z,6.87
2018-05-16T18:59:55.149Z,6.22
2018-05-16T19:02:23.339Z,5.90
2018-05-16T19:04:51.453Z,6.22
2018-05-16T19:07:19.566Z,6.30
2018-05-16T19:09:48.506Z,6.03
2018-05-16T19:12:16.628Z,6.70
2018-05-16T19:14:44.746Z,6.40
2018-05-16T19:17:12.866Z,7.05
2018-05-16T19:19:41.782Z,6.90
2018-05-16T19:22:10.679Z,6.90
2018-05-16T19:24:39.565Z,5.93
2018-05-16T19:27:08.495Z,6.65
2018-05-16T19:29:36.619Z,6.18
2018-05-16T19:32:04.740Z,6.90
2018-05-16T19:34:32.870Z,6.47
2018-05-16T19:37:00.983Z,7.18
2018-05-16T19:39:29.877Z,6.85
2018-05-16T19:41:58.757Z,6.15
2018-05-16T19:44:27.710Z,6.85
2018-05-16T19:46:55.825Z,6.93
2018-05-16T19:49:23.999Z,6.65
2018-05-16T19:51:52.130Z,6.37
2018-05-16T19:54:20.241Z,6.97
2018-05-16T19:56:48.357Z,6.47
2018-05-16T19:59:17.240Z,5.55
2018-05-16T20:01:45.385Z,6.47
2018-05-16T20:04:13.526Z,5.60
2018-05-16T20:06:41.649Z,6.50
2018-05-16T20:09:09.823Z,7.65
2018-05-16T20:11:37.912Z,7.62
2018-05-16T20:14:06.021Z,6.90
2018-05-16T20:16:34.908Z,6.40
2018-05-16T20:19:03.782Z,7.00
2018-05-16T20:21:31.906Z,6.35
2018-05-16T20:24:00.017Z,7.07
2018-05-16T20:26:28.145Z,7.25
2018-05-16T20:28:57.038Z,6.60
2018-05-16T20:31:25.917Z,7.28
2018-05-16T20:33:54.037Z,7.15
2018-05-16T20:36:22.172Z,6.82
2018-05-16T20:38:51.045Z,7.82
2018-05-16T20:41:19.154Z,7.37
2018-05-16T20:43:48.039Z,6.78
2018-05-16T20:46:16.935Z,7.15
2018-05-16T20:48:45.814Z,6.37
2018-05-16T20:51:13.930Z,6.78
2018-05-16T20:53:42.065Z,6.72
2018-05-16T20:56:10.210Z,5.90
2018-05-16T20:58:38.325Z,6.75
2018-05-16T21:01:06.443Z,7.12
2018-05-16T21:03:34.568Z,7.00
2018-05-16T21:06:03.458Z,6.72
2018-05-16T21:08:31.576Z,6.97
2018-05-16T21:11:00.469Z,6.75
2018-05-16T21:13:29.346Z,6.20
2018-05-16T21:15:57.473Z,6.82
2018-05-16T21:18:25.591Z,6.25
2018-05-16T21:20:53.693Z,6.50
2018-05-16T21:23:22.578Z,6.25
2018-05-16T21:25:50.677Z,5.53
2018-05-16T21:28:18.812Z,5.72
2018-05-16T21:30:46.934Z,5.57
2018-05-16T21:33:15.057Z,5.95
2018-05-16T21:35:43.158Z,5.70
2018-05-16T21:38:11.313Z,6.32
2018-05-16T21:40:39.431Z,5.05
2018-05-16T21:43:08.318Z,5.65
2018-05-16T21:45:37.195Z,5.22
2018-05-16T21:48:05.322Z,5.82
2018-05-16T21:50:33.428Z,6.30
2018-05-16T21:53:01.567Z,6.20
2018-05-16T21:55:29.677Z,6.60
2018-05-16T21:57:57.819Z,6.45
2018-05-16T22:00:25.929Z,6.07
2018-05-16T22:02:54.054Z,6.50
2018-05-16T22:05:22.938Z,6.15
2018-05-16T22:07:51.065Z,6.10
2018-05-16T22:10:19.169Z,6.43
2018-05-16T22:12:47.288Z,5.57
2018-05-16T22:15:16.169Z,6.35
2018-05-16T22:17:44.286Z,5.60
2018-05-16T22:20:12.390Z,6.22
2018-05-16T22:22:40.512Z,5.72
2018-05-16T22:25:09.394Z,6.87
2018-05-16T22:27:37.512Z,6.53
2018-05-16T22:30:05.013Z,6.20
2018-05-16T22:32:38.718Z,6.12
2018-05-16T22:35:12.326Z,6.37
2018-05-16T22:37:46.071Z,6.20
2018-05-16T22:40:20.378Z,6.05
2018-05-16T22:42:48.681Z,6.43
2018-05-16T22:45:19.262Z,6.68
2018-05-16T22:47:47.365Z,6.75
2018-05-16T22:50:16.249Z,6.95
2018-05-16T22:52:44.354Z,6.57
2018-05-16T22:55:12.473Z,6.07
2018-05-16T22:57:40.590Z,6.60
2018-05-16T23:00:09.501Z,6.35
2018-05-16T23:02:38.375Z,7.30
2018-05-16T23:05:06.483Z,6.65
2018-05-16T23:07:34.592Z,7.35
2018-05-16T23:10:02.694Z,6.65
2018-05-16T23:12:30.816Z,7.28
2018-05-16T23:14:58.925Z,7.07
2018-05-16T23:17:27.052Z,7.60
2018-05-16T23:19:55.959Z,6.57
2018-05-16T23:22:24.061Z,7.75
2018-05-16T23:24:52.173Z,7.72
2018-05-16T23:27:20.290Z,8.05
2018-05-16T23:29:48.474Z,7.22
2018-05-16T23:32:16.576Z,7.78
2018-05-16T23:34:44.681Z,6.75
2018-05-16T23:37:12.811Z,7.30
2018-05-16T23:39:40.926Z,6.85
2018-05-16T23:42:09.037Z,7.20
2018-05-16T23:44:37.927Z,7.72
2018-05-16T23:47:06.809Z,8.10
2018-05-16T23:49:34.928Z,7.57
2018-05-16T23:52:03.037Z,7.70
2018-05-16T23:54:31.158Z,7.35
2018-05-16T23:57:00.047Z,6.90
2018-05-16T23:59:28.918Z,7.60
